Christy S — WDE5537 — position and weather

sailwx.info

Track history (hours):
 
Tides and Currents Weather Stations Pressure Air Temp Water Temp Dewpoint Dewpoint Depression Visibility Wind Speed Wind Dir Waves Ship Positions

Christy S

Owner: AMERICAN WORKBOATS, TERMINAL ISLAND, CA. More information available from US FCC via Universal Licensing System and Coast Guard Vessel Documentation Center.

Last reported at 2017-Oct-26 16:16 UTC. Time now 2017-Nov-18 19:41 UTC.
Position N 33°44' W 118°16'.
Warning: this ship's position is 23 days out of date.

Length 19 m; draft 6.6 m.

Type: Passenger vessel. MMSI: 367368180.

Date/timePositionNaut miles runAvg speedWind from/ knotsBaromVisibWave heightAir tempDewpointWater temp
2017-Oct-26 16:16N 33°44' W 118°16'4 4.0
2017-Oct-26 15:20N 33°42' W 118°12'411.8
2017-Oct-26 15:00N 33°44' W 118°16'0 0.0
2017-Oct-26 00:51N 33°44' W 118°16'3 8.6
2017-Oct-26 00:28N 33°42' W 118°12'3 1.0
2017-Oct-25 21:09N 33°44' W 118°16'1 3.3
2017-Oct-25 20:57N 33°43' W 118°16'1 1.5
2017-Oct-25 20:29N 33°43' W 118°15'1 2.2
2017-Oct-25 19:54N 33°44' W 118°16'3 8.4
2017-Oct-25 19:30N 33°42' W 118°12'3 6.4
2017-Oct-25 19:00N 33°44' W 118°16'0 0.7
2017-Oct-25 18:25N 33°44' W 118°16'0 0.0
2017-Oct-24 21:36N 33°44' W 118°16'0 0.1
2017-Oct-24 21:29N 33°44' W 118°16'3 5.8
2017-Oct-24 20:58N 33°42' W 118°13'1 1.3
2017-Oct-24 20:30N 33°42' W 118°14'3 4.5
2017-Oct-24 19:57N 33°44' W 118°16'1 1.2
2017-Oct-24 19:30N 33°43' W 118°16'612.6
2017-Oct-24 19:00N 33°41' W 118°09'1 1.8
2017-Oct-24 18:30N 33°41' W 118°10'610.6
2017-Oct-24 17:58N 33°44' W 118°16'0 0.0
2017-Oct-24 17:28N 33°44' W 118°16'2 4.5
2017-Oct-24 16:59N 33°42' W 118°15'1 2.7
2017-Oct-24 16:30N 33°42' W 118°13'0 0.2
2017-Oct-24 15:56N 33°42' W 118°13'3 0.2
2017-Oct-23 20:02N 33°44' W 118°16'0 0.2
2017-Oct-23 19:47N 33°44' W 118°16'2 5.5
2017-Oct-23 19:28N 33°43' W 118°14'1 2.0
2017-Oct-23 19:00N 33°43' W 118°13'3 0.2
2017-Oct-23 03:16N 33°44' W 118°16'2 1.1
2017-Oct-23 01:44N 33°43' W 118°14'2 1.9
2017-Oct-23 00:50N 33°44' W 118°16'0 0.0
2017-Oct-23 00:19N 33°44' W 118°16'0 0.0
2017-Oct-23 00:00N 33°44' W 118°16'4 7.9
2017-Oct-22 23:29N 33°45' W 118°11'0 0.6
2017-Oct-22 22:42N 33°44' W 118°11'1 3.2
2017-Oct-22 22:14N 33°46' W 118°12'2 7.2
2017-Oct-22 21:57N 33°44' W 118°12'3 5.6
2017-Oct-22 21:24N 33°44' W 118°16'0 0.1
2017-Oct-22 20:58N 33°44' W 118°16'4 2.5
2017-Oct-22 19:22N 33°46' W 118°12'3 5.3
2017-Oct-22 18:46N 33°43' W 118°13'3 8.8
2017-Oct-22 18:25N 33°44' W 118°16'1 0.1
2017-Oct-21 23:15N 33°43' W 118°15'1 0.1
2017-Oct-20 23:43N 33°44' W 118°16'0 0.0
2017-Oct-20 21:33N 33°44' W 118°16'0 1.4
2017-Oct-20 21:27N 33°44' W 118°16'4 7.9
2017-Oct-20 20:59N 33°43' W 118°12'4 1.4
2017-Oct-20 18:22N 33°44' W 118°16'3 8.3
2017-Oct-20 17:58N 33°42' W 118°12'2 0.1
2017-Oct-19 20:19N 33°43' W 118°15'1 1.1
2017-Oct-19 19:14N 33°44' W 118°16'3 5.0
2017-Oct-19 18:40N 33°43' W 118°13'214.4
2017-Oct-19 18:30N 33°43' W 118°16'1 0.8
2017-Oct-19 17:32N 33°44' W 118°16'0 5.4
2017-Oct-19 17:30N 33°44' W 118°16'4 2.2
2017-Oct-19 15:49N 33°44' W 118°11'1 2.1
2017-Oct-19 15:27N 33°44' W 118°12'3 0.2
2017-Oct-19 02:40N 33°43' W 118°16'212.3
2017-Oct-19 02:30N 33°43' W 118°13'3 3.2
2017-Oct-19 01:40N 33°46' W 118°12'3 8.4
2017-Oct-19 01:21N 33°43' W 118°13'1 0.3
2017-Oct-18 21:29N 33°44' W 118°13'2 1.6
2017-Oct-18 20:22N 33°43' W 118°14'2 3.6
2017-Oct-18 19:56N 33°44' W 118°16'0 0.1
2017-Oct-18 19:20N 33°44' W 118°16'0 0.0
2017-Oct-18 18:56N 33°44' W 118°16'0 0.0
2017-Oct-18 16:45N 33°44' W 118°16'  
Track history (hours):
 
Tides and Currents Weather Stations Pressure Air Temp Water Temp Dewpoint Dewpoint Depression Visibility Wind Speed Wind Dir Waves Ship Positions

Christy S

Owner: AMERICAN WORKBOATS, TERMINAL ISLAND, CA. More information available from US FCC via Universal Licensing System and Coast Guard Vessel Documentation Center.

Last reported at 2017-Oct-26 16:16 UTC. Time now 2017-Nov-18 19:41 UTC.
Position N 33°44' W 118°16'.
Warning: this ship's position is 23 days out of date.

Length 19 m; draft 6.6 m.

Type: Passenger vessel. MMSI: 367368180.

Date/timePositionNaut miles runAvg speedWind from/ knotsBaromVisibWave heightAir tempDewpointWater temp
2017-Oct-26 16:16N 33°44' W 118°16'4 4.0
2017-Oct-26 15:20N 33°42' W 118°12'411.8
2017-Oct-26 15:00N 33°44' W 118°16'0 0.0
2017-Oct-26 00:51N 33°44' W 118°16'3 8.6
2017-Oct-26 00:28N 33°42' W 118°12'3 1.0
2017-Oct-25 21:09N 33°44' W 118°16'1 3.3
2017-Oct-25 20:57N 33°43' W 118°16'1 1.5
2017-Oct-25 20:29N 33°43' W 118°15'1 2.2
2017-Oct-25 19:54N 33°44' W 118°16'3 8.4
2017-Oct-25 19:30N 33°42' W 118°12'3 6.4
2017-Oct-25 19:00N 33°44' W 118°16'0 0.7
2017-Oct-25 18:25N 33°44' W 118°16'0 0.0
2017-Oct-24 21:36N 33°44' W 118°16'0 0.1
2017-Oct-24 21:29N 33°44' W 118°16'3 5.8
2017-Oct-24 20:58N 33°42' W 118°13'1 1.3
2017-Oct-24 20:30N 33°42' W 118°14'3 4.5
2017-Oct-24 19:57N 33°44' W 118°16'1 1.2
2017-Oct-24 19:30N 33°43' W 118°16'612.6
2017-Oct-24 19:00N 33°41' W 118°09'1 1.8
2017-Oct-24 18:30N 33°41' W 118°10'610.6
2017-Oct-24 17:58N 33°44' W 118°16'0 0.0
2017-Oct-24 17:28N 33°44' W 118°16'2 4.5
2017-Oct-24 16:59N 33°42' W 118°15'1 2.7
2017-Oct-24 16:30N 33°42' W 118°13'0 0.2
2017-Oct-24 15:56N 33°42' W 118°13'3 0.2
2017-Oct-23 20:02N 33°44' W 118°16'0 0.2
2017-Oct-23 19:47N 33°44' W 118°16'2 5.5
2017-Oct-23 19:28N 33°43' W 118°14'1 2.0
2017-Oct-23 19:00N 33°43' W 118°13'3 0.2
2017-Oct-23 03:16N 33°44' W 118°16'2 1.1
2017-Oct-23 01:44N 33°43' W 118°14'2 1.9
2017-Oct-23 00:50N 33°44' W 118°16'0 0.0
2017-Oct-23 00:19N 33°44' W 118°16'0 0.0
2017-Oct-23 00:00N 33°44' W 118°16'4 7.9
2017-Oct-22 23:29N 33°45' W 118°11'0 0.6
2017-Oct-22 22:42N 33°44' W 118°11'1 3.2
2017-Oct-22 22:14N 33°46' W 118°12'2 7.2
2017-Oct-22 21:57N 33°44' W 118°12'3 5.6
2017-Oct-22 21:24N 33°44' W 118°16'0 0.1
2017-Oct-22 20:58N 33°44' W 118°16'4 2.5
2017-Oct-22 19:22N 33°46' W 118°12'3 5.3
2017-Oct-22 18:46N 33°43' W 118°13'3 8.8
2017-Oct-22 18:25N 33°44' W 118°16'1 0.1
2017-Oct-21 23:15N 33°43' W 118°15'1 0.1
2017-Oct-20 23:43N 33°44' W 118°16'0 0.0
2017-Oct-20 21:33N 33°44' W 118°16'0 1.4
2017-Oct-20 21:27N 33°44' W 118°16'4 7.9
2017-Oct-20 20:59N 33°43' W 118°12'4 1.4
2017-Oct-20 18:22N 33°44' W 118°16'3 8.3
2017-Oct-20 17:58N 33°42' W 118°12'2 0.1
2017-Oct-19 20:19N 33°43' W 118°15'1 1.1
2017-Oct-19 19:14N 33°44' W 118°16'3 5.0
2017-Oct-19 18:40N 33°43' W 118°13'214.4
2017-Oct-19 18:30N 33°43' W 118°16'1 0.8
2017-Oct-19 17:32N 33°44' W 118°16'0 5.4
2017-Oct-19 17:30N 33°44' W 118°16'4 2.2
2017-Oct-19 15:49N 33°44' W 118°11'1 2.1
2017-Oct-19 15:27N 33°44' W 118°12'3 0.2
2017-Oct-19 02:40N 33°43' W 118°16'212.3
2017-Oct-19 02:30N 33°43' W 118°13'3 3.2
2017-Oct-19 01:40N 33°46' W 118°12'3 8.4
2017-Oct-19 01:21N 33°43' W 118°13'1 0.3
2017-Oct-18 21:29N 33°44' W 118°13'2 1.6
2017-Oct-18 20:22N 33°43' W 118°14'2 3.6
2017-Oct-18 19:56N 33°44' W 118°16'0 0.1
2017-Oct-18 19:20N 33°44' W 118°16'0 0.0
2017-Oct-18 18:56N 33°44' W 118°16'0 0.0
2017-Oct-18 16:45N 33°44' W 118°16'  

Dump ship's entire track history